sensor_id;sensor_type;location;lat;lon;timestamp;P1;durP1;ratioP1;P2;durP2;ratioP2
52124;SDS011;38119;52.710;6.398;2023-09-19T00:01:32;5.35;;;1.70;;
52124;SDS011;38119;52.710;6.398;2023-09-19T00:03:58;7.22;;;1.77;;
52124;SDS011;38119;52.710;6.398;2023-09-19T00:06:24;6.75;;;1.88;;
52124;SDS011;38119;52.710;6.398;2023-09-19T00:08:51;9.20;;;2.25;;
52124;SDS011;38119;52.710;6.398;2023-09-19T00:11:17;12.07;;;2.15;;
52124;SDS011;38119;52.710;6.398;2023-09-19T00:13:43;9.30;;;1.75;;
52124;SDS011;38119;52.710;6.398;2023-09-19T00:16:09;8.05;;;1.77;;
52124;SDS011;38119;52.710;6.398;2023-09-19T00:18:39;8.40;;;2.05;;
52124;SDS011;38119;52.710;6.398;2023-09-19T00:21:04;10.73;;;2.15;;
52124;SDS011;38119;52.710;6.398;2023-09-19T00:23:30;11.85;;;2.05;;
52124;SDS011;38119;52.710;6.398;2023-09-19T00:25:59;9.63;;;1.73;;
52124;SDS011;38119;52.710;6.398;2023-09-19T00:28:25;11.45;;;2.35;;
52124;SDS011;38119;52.710;6.398;2023-09-19T00:30:51;12.95;;;2.20;;
52124;SDS011;38119;52.710;6.398;2023-09-19T00:33:17;7.70;;;2.30;;
52124;SDS011;38119;52.710;6.398;2023-09-19T00:35:50;10.60;;;2.03;;
52124;SDS011;38119;52.710;6.398;2023-09-19T00:38:17;12.88;;;2.53;;
52124;SDS011;38119;52.710;6.398;2023-09-19T00:40:46;13.93;;;2.67;;
52124;SDS011;38119;52.710;6.398;2023-09-19T00:43:12;9.88;;;2.72;;
52124;SDS011;38119;52.710;6.398;2023-09-19T00:45:39;10.75;;;2.08;;
52124;SDS011;38119;52.710;6.398;2023-09-19T00:48:08;10.15;;;2.20;;
52124;SDS011;38119;52.710;6.398;2023-09-19T00:50:34;14.10;;;2.28;;
52124;SDS011;38119;52.710;6.398;2023-09-19T00:53:01;9.10;;;2.35;;
52124;SDS011;38119;52.710;6.398;2023-09-19T00:55:33;11.63;;;2.40;;
52124;SDS011;38119;52.710;6.398;2023-09-19T00:57:59;10.80;;;2.35;;
52124;SDS011;38119;52.710;6.398;2023-09-19T01:00:25;12.80;;;2.22;;
52124;SDS011;38119;52.710;6.398;2023-09-19T01:02:51;14.65;;;2.65;;
52124;SDS011;38119;52.710;6.398;2023-09-19T01:05:17;11.45;;;2.10;;
52124;SDS011;38119;52.710;6.398;2023-09-19T01:07:43;10.32;;;2.78;;
52124;SDS011;38119;52.710;6.398;2023-09-19T01:10:13;11.75;;;2.35;;
52124;SDS011;38119;52.710;6.398;2023-09-19T01:18:16;11.25;;;2.53;;
52124;SDS011;38119;52.710;6.398;2023-09-19T01:32:03;9.98;;;2.45;;
52124;SDS011;38119;52.710;6.398;2023-09-19T01:34:46;12.52;;;3.13;;
52124;SDS011;38119;52.710;6.398;2023-09-19T01:37:17;11.70;;;2.78;;
52124;SDS011;38119;52.710;6.398;2023-09-19T01:40:01;13.13;;;3.10;;
52124;SDS011;38119;52.710;6.398;2023-09-19T01:45:23;11.07;;;2.70;;
52124;SDS011;38119;52.710;6.398;2023-09-19T01:48:10;17.67;;;3.08;;
52124;SDS011;38119;52.710;6.398;2023-09-19T01:50:45;9.00;;;2.35;;
52124;SDS011;38119;52.710;6.398;2023-09-19T01:53:25;14.52;;;2.50;;
52124;SDS011;38119;52.710;6.398;2023-09-19T01:55:55;7.72;;;2.60;;
52124;SDS011;38119;52.710;6.398;2023-09-19T02:01:10;8.38;;;2.33;;
52124;SDS011;38119;52.710;6.398;2023-09-19T02:03:41;10.35;;;2.63;;
52124;SDS011;38119;52.710;6.398;2023-09-19T02:06:13;13.77;;;2.60;;
52124;SDS011;38119;52.710;6.398;2023-09-19T02:08:43;14.18;;;2.83;;
52124;SDS011;38119;52.710;6.398;2023-09-19T02:11:10;10.30;;;2.70;;
52124;SDS011;38119;52.710;6.398;2023-09-19T02:13:36;8.30;;;2.50;;
52124;SDS011;38119;52.710;6.398;2023-09-19T02:16:02;10.77;;;2.55;;
52124;SDS011;38119;52.710;6.398;2023-09-19T02:18:29;7.43;;;2.80;;
52124;SDS011;38119;52.710;6.398;2023-09-19T02:20:55;13.23;;;2.85;;
52124;SDS011;38119;52.710;6.398;2023-09-19T02:23:23;13.05;;;2.35;;
52124;SDS011;38119;52.710;6.398;2023-09-19T02:25:53;11.35;;;2.40;;
52124;SDS011;38119;52.710;6.398;2023-09-19T02:28:19;12.30;;;2.28;;
52124;SDS011;38119;52.710;6.398;2023-09-19T02:30:47;11.27;;;2.40;;
52124;SDS011;38119;52.710;6.398;2023-09-19T02:33:14;10.60;;;2.42;;
52124;SDS011;38119;52.710;6.398;2023-09-19T02:35:40;8.85;;;2.58;;
52124;SDS011;38119;52.710;6.398;2023-09-19T02:38:05;9.82;;;2.13;;
52124;SDS011;38119;52.710;6.398;2023-09-19T02:40:32;11.68;;;2.38;;
52124;SDS011;38119;52.710;6.398;2023-09-19T02:43:00;11.63;;;2.13;;
52124;SDS011;38119;52.710;6.398;2023-09-19T02:45:27;11.27;;;2.25;;
52124;SDS011;38119;52.710;6.398;2023-09-19T02:47:53;10.60;;;2.53;;
52124;SDS011;38119;52.710;6.398;2023-09-19T02:50:19;6.25;;;2.40;;
52124;SDS011;38119;52.710;6.398;2023-09-19T02:52:46;12.48;;;2.25;;
52124;SDS011;38119;52.710;6.398;2023-09-19T02:55:13;12.13;;;2.35;;
52124;SDS011;38119;52.710;6.398;2023-09-19T02:57:49;8.05;;;2.35;;
52124;SDS011;38119;52.710;6.398;2023-09-19T03:00:16;9.93;;;2.60;;
52124;SDS011;38119;52.710;6.398;2023-09-19T03:02:49;8.75;;;2.47;;
52124;SDS011;38119;52.710;6.398;2023-09-19T03:05:18;8.75;;;2.70;;
52124;SDS011;38119;52.710;6.398;2023-09-19T03:07:44;10.45;;;2.70;;
52124;SDS011;38119;52.710;6.398;2023-09-19T03:10:12;9.32;;;2.55;;
52124;SDS011;38119;52.710;6.398;2023-09-19T03:12:41;11.18;;;2.70;;
52124;SDS011;38119;52.710;6.398;2023-09-19T03:15:07;10.43;;;2.30;;
52124;SDS011;38119;52.710;6.398;2023-09-19T03:17:33;9.93;;;2.58;;
52124;SDS011;38119;52.710;6.398;2023-09-19T03:19:59;10.57;;;2.45;;
52124;SDS011;38119;52.710;6.398;2023-09-19T03:22:26;6.70;;;2.20;;
52124;SDS011;38119;52.710;6.398;2023-09-19T03:24:52;7.80;;;2.20;;
52124;SDS011;38119;52.710;6.398;2023-09-19T03:27:18;9.18;;;2.58;;
52124;SDS011;38119;52.710;6.398;2023-09-19T03:29:43;11.63;;;2.60;;
52124;SDS011;38119;52.710;6.398;2023-09-19T03:32:09;9.07;;;2.83;;
52124;SDS011;38119;52.710;6.398;2023-09-19T03:34:38;9.93;;;2.60;;
52124;SDS011;38119;52.710;6.398;2023-09-19T03:37:08;9.95;;;2.30;;
52124;SDS011;38119;52.710;6.398;2023-09-19T03:39:34;9.07;;;2.30;;
52124;SDS011;38119;52.710;6.398;2023-09-19T03:42:00;12.63;;;2.58;;
52124;SDS011;38119;52.710;6.398;2023-09-19T03:44:29;11.93;;;2.40;;
52124;SDS011;38119;52.710;6.398;2023-09-19T03:46:55;11.02;;;3.13;;
52124;SDS011;38119;52.710;6.398;2023-09-19T03:49:22;11.77;;;2.83;;
52124;SDS011;38119;52.710;6.398;2023-09-19T03:51:48;11.38;;;2.70;;
52124;SDS011;38119;52.710;6.398;2023-09-19T03:54:14;9.00;;;2.60;;
52124;SDS011;38119;52.710;6.398;2023-09-19T03:56:39;8.43;;;2.42;;
52124;SDS011;38119;52.710;6.398;2023-09-19T03:59:05;9.65;;;2.50;;
52124;SDS011;38119;52.710;6.398;2023-09-19T04:01:31;7.90;;;2.72;;
52124;SDS011;38119;52.710;6.398;2023-09-19T04:03:58;9.55;;;2.65;;
52124;SDS011;38119;52.710;6.398;2023-09-19T04:06:32;10.77;;;3.00;;
52124;SDS011;38119;52.710;6.398;2023-09-19T04:09:04;8.68;;;2.53;;
52124;SDS011;38119;52.710;6.398;2023-09-19T04:11:31;9.15;;;3.00;;
52124;SDS011;38119;52.710;6.398;2023-09-19T04:13:58;11.32;;;3.05;;
52124;SDS011;38119;52.710;6.398;2023-09-19T04:16:24;13.95;;;2.83;;
52124;SDS011;38119;52.710;6.398;2023-09-19T04:18:50;11.07;;;2.45;;
52124;SDS011;38119;52.710;6.398;2023-09-19T04:21:15;11.30;;;2.92;;
52124;SDS011;38119;52.710;6.398;2023-09-19T04:23:41;11.38;;;2.70;;
52124;SDS011;38119;52.710;6.398;2023-09-19T04:26:07;11.55;;;3.13;;
52124;SDS011;38119;52.710;6.398;2023-09-19T04:28:33;17.48;;;2.97;;
52124;SDS011;38119;52.710;6.398;2023-09-19T04:30:59;10.80;;;2.50;;
52124;SDS011;38119;52.710;6.398;2023-09-19T04:33:25;11.38;;;2.67;;
52124;SDS011;38119;52.710;6.398;2023-09-19T04:35:54;13.02;;;2.88;;
52124;SDS011;38119;52.710;6.398;2023-09-19T04:38:20;9.65;;;3.03;;
52124;SDS011;38119;52.710;6.398;2023-09-19T04:40:47;13.43;;;3.05;;
52124;SDS011;38119;52.710;6.398;2023-09-19T04:43:12;12.70;;;3.35;;
52124;SDS011;38119;52.710;6.398;2023-09-19T04:45:38;13.45;;;3.10;;
52124;SDS011;38119;52.710;6.398;2023-09-19T04:48:05;14.52;;;2.67;;
52124;SDS011;38119;52.710;6.398;2023-09-19T04:50:34;15.23;;;2.60;;
52124;SDS011;38119;52.710;6.398;2023-09-19T04:52:59;10.50;;;2.47;;
52124;SDS011;38119;52.710;6.398;2023-09-19T04:55:26;10.52;;;3.28;;
52124;SDS011;38119;52.710;6.398;2023-09-19T04:57:52;13.63;;;2.88;;
52124;SDS011;38119;52.710;6.398;2023-09-19T05:00:21;16.20;;;3.50;;
52124;SDS011;38119;52.710;6.398;2023-09-19T05:02:49;16.42;;;2.97;;
52124;SDS011;38119;52.710;6.398;2023-09-19T05:05:16;13.32;;;2.88;;
52124;SDS011;38119;52.710;6.398;2023-09-19T05:07:44;15.60;;;3.22;;
52124;SDS011;38119;52.710;6.398;2023-09-19T05:10:10;13.02;;;2.83;;
52124;SDS011;38119;52.710;6.398;2023-09-19T05:12:37;13.75;;;2.85;;
52124;SDS011;38119;52.710;6.398;2023-09-19T05:15:03;14.27;;;3.40;;
52124;SDS011;38119;52.710;6.398;2023-09-19T05:17:29;11.13;;;2.50;;
52124;SDS011;38119;52.710;6.398;2023-09-19T05:19:56;13.38;;;2.92;;
52124;SDS011;38119;52.710;6.398;2023-09-19T05:22:23;18.02;;;3.17;;
52124;SDS011;38119;52.710;6.398;2023-09-19T05:24:50;8.55;;;2.92;;
52124;SDS011;38119;52.710;6.398;2023-09-19T05:27:16;16.42;;;3.33;;
52124;SDS011;38119;52.710;6.398;2023-09-19T05:29:45;8.50;;;2.63;;
52124;SDS011;38119;52.710;6.398;2023-09-19T05:32:10;17.20;;;3.10;;
52124;SDS011;38119;52.710;6.398;2023-09-19T05:34:36;9.65;;;2.63;;
52124;SDS011;38119;52.710;6.398;2023-09-19T05:37:03;13.80;;;2.67;;
52124;SDS011;38119;52.710;6.398;2023-09-19T05:39:30;14.27;;;2.33;;
52124;SDS011;38119;52.710;6.398;2023-09-19T05:41:55;18.25;;;3.15;;
52124;SDS011;38119;52.710;6.398;2023-09-19T05:44:22;11.18;;;2.70;;
52124;SDS011;38119;52.710;6.398;2023-09-19T05:46:48;17.30;;;2.80;;
52124;SDS011;38119;52.710;6.398;2023-09-19T05:49:14;11.68;;;3.03;;
52124;SDS011;38119;52.710;6.398;2023-09-19T05:51:40;12.13;;;2.60;;
52124;SDS011;38119;52.710;6.398;2023-09-19T05:54:06;12.73;;;2.55;;
52124;SDS011;38119;52.710;6.398;2023-09-19T05:56:32;12.52;;;2.85;;
52124;SDS011;38119;52.710;6.398;2023-09-19T05:58:57;14.90;;;2.78;;
52124;SDS011;38119;52.710;6.398;2023-09-19T06:01:23;13.63;;;2.65;;
52124;SDS011;38119;52.710;6.398;2023-09-19T06:03:48;15.18;;;2.72;;
52124;SDS011;38119;52.710;6.398;2023-09-19T06:06:14;19.60;;;3.35;;
52124;SDS011;38119;52.710;6.398;2023-09-19T06:08:39;19.67;;;3.20;;
52124;SDS011;38119;52.710;6.398;2023-09-19T06:11:05;15.93;;;2.78;;
52124;SDS011;38119;52.710;6.398;2023-09-19T06:13:32;12.93;;;2.95;;
52124;SDS011;38119;52.710;6.398;2023-09-19T06:15:58;15.18;;;3.25;;
52124;SDS011;38119;52.710;6.398;2023-09-19T06:18:28;24.30;;;3.17;;
52124;SDS011;38119;52.710;6.398;2023-09-19T06:20:54;14.30;;;2.65;;
52124;SDS011;38119;52.710;6.398;2023-09-19T06:23:20;13.23;;;2.65;;
52124;SDS011;38119;52.710;6.398;2023-09-19T06:25:47;16.30;;;2.78;;
52124;SDS011;38119;52.710;6.398;2023-09-19T06:28:13;12.63;;;2.83;;
52124;SDS011;38119;52.710;6.398;2023-09-19T06:30:39;11.60;;;3.13;;
52124;SDS011;38119;52.710;6.398;2023-09-19T06:33:05;12.60;;;3.42;;
52124;SDS011;38119;52.710;6.398;2023-09-19T06:35:32;13.07;;;2.65;;
52124;SDS011;38119;52.710;6.398;2023-09-19T06:37:58;11.48;;;2.75;;
52124;SDS011;38119;52.710;6.398;2023-09-19T06:40:28;11.82;;;2.47;;
52124;SDS011;38119;52.710;6.398;2023-09-19T06:42:56;9.70;;;2.75;;
52124;SDS011;38119;52.710;6.398;2023-09-19T06:45:22;13.95;;;3.20;;
52124;SDS011;38119;52.710;6.398;2023-09-19T06:47:51;11.68;;;3.00;;
52124;SDS011;38119;52.710;6.398;2023-09-19T06:50:20;10.30;;;2.67;;
52124;SDS011;38119;52.710;6.398;2023-09-19T06:52:50;10.07;;;2.80;;
52124;SDS011;38119;52.710;6.398;2023-09-19T06:55:18;16.15;;;3.83;;
52124;SDS011;38119;52.710;6.398;2023-09-19T06:57:45;16.25;;;2.90;;
52124;SDS011;38119;52.710;6.398;2023-09-19T07:00:11;14.50;;;2.78;;
52124;SDS011;38119;52.710;6.398;2023-09-19T07:02:56;15.65;;;2.65;;
52124;SDS011;38119;52.710;6.398;2023-09-19T07:07:56;19.33;;;3.60;;
52124;SDS011;38119;52.710;6.398;2023-09-19T07:10:24;15.82;;;3.28;;
52124;SDS011;38119;52.710;6.398;2023-09-19T07:12:56;11.40;;;2.72;;
52124;SDS011;38119;52.710;6.398;2023-09-19T07:15:23;8.95;;;2.40;;
52124;SDS011;38119;52.710;6.398;2023-09-19T07:17:50;13.43;;;2.83;;
52124;SDS011;38119;52.710;6.398;2023-09-19T07:20:21;13.18;;;2.83;;
52124;SDS011;38119;52.710;6.398;2023-09-19T07:22:48;13.82;;;3.05;;
52124;SDS011;38119;52.710;6.398;2023-09-19T07:25:16;12.35;;;2.78;;
52124;SDS011;38119;52.710;6.398;2023-09-19T07:27:41;11.38;;;2.70;;
52124;SDS011;38119;52.710;6.398;2023-09-19T07:30:08;16.17;;;3.13;;
52124;SDS011;38119;52.710;6.398;2023-09-19T07:32:34;12.10;;;2.50;;
52124;SDS011;38119;52.710;6.398;2023-09-19T07:35:02;11.60;;;2.65;;
52124;SDS011;38119;52.710;6.398;2023-09-19T07:37:29;11.15;;;2.67;;
52124;SDS011;38119;52.710;6.398;2023-09-19T07:39:58;8.65;;;2.30;;
52124;SDS011;38119;52.710;6.398;2023-09-19T07:42:25;11.73;;;3.13;;
52124;SDS011;38119;52.710;6.398;2023-09-19T07:44:51;12.60;;;3.45;;
52124;SDS011;38119;52.710;6.398;2023-09-19T07:47:18;12.15;;;2.72;;
52124;SDS011;38119;52.710;6.398;2023-09-19T07:49:46;14.45;;;2.97;;
52124;SDS011;38119;52.710;6.398;2023-09-19T07:52:12;14.90;;;3.10;;
52124;SDS011;38119;52.710;6.398;2023-09-19T07:54:38;11.07;;;3.10;;
52124;SDS011;38119;52.710;6.398;2023-09-19T07:57:06;12.00;;;2.65;;
52124;SDS011;38119;52.710;6.398;2023-09-19T07:59:32;15.52;;;3.53;;
52124;SDS011;38119;52.710;6.398;2023-09-19T08:01:57;14.75;;;3.00;;
52124;SDS011;38119;52.710;6.398;2023-09-19T08:04:23;10.68;;;3.08;;
52124;SDS011;38119;52.710;6.398;2023-09-19T08:06:51;10.90;;;2.67;;
52124;SDS011;38119;52.710;6.398;2023-09-19T08:09:17;13.13;;;2.97;;
52124;SDS011;38119;52.710;6.398;2023-09-19T08:11:46;13.68;;;3.15;;
52124;SDS011;38119;52.710;6.398;2023-09-19T08:14:12;13.57;;;3.55;;
52124;SDS011;38119;52.710;6.398;2023-09-19T08:16:39;16.95;;;3.20;;
52124;SDS011;38119;52.710;6.398;2023-09-19T08:19:05;19.90;;;3.10;;
52124;SDS011;38119;52.710;6.398;2023-09-19T08:21:31;17.38;;;3.25;;
52124;SDS011;38119;52.710;6.398;2023-09-19T08:23:57;19.25;;;3.80;;
52124;SDS011;38119;52.710;6.398;2023-09-19T08:26:23;15.77;;;3.35;;
52124;SDS011;38119;52.710;6.398;2023-09-19T08:28:49;11.35;;;3.03;;
52124;SDS011;38119;52.710;6.398;2023-09-19T08:31:16;14.88;;;3.83;;
52124;SDS011;38119;52.710;6.398;2023-09-19T08:33:42;14.07;;;3.03;;
52124;SDS011;38119;52.710;6.398;2023-09-19T08:36:16;13.52;;;2.95;;
52124;SDS011;38119;52.710;6.398;2023-09-19T08:38:42;19.05;;;3.03;;
52124;SDS011;38119;52.710;6.398;2023-09-19T08:41:07;11.07;;;3.47;;
52124;SDS011;38119;52.710;6.398;2023-09-19T08:43:34;19.25;;;3.35;;
52124;SDS011;38119;52.710;6.398;2023-09-19T08:48:39;16.50;;;3.25;;
52124;SDS011;38119;52.710;6.398;2023-09-19T08:51:18;16.60;;;3.35;;
52124;SDS011;38119;52.710;6.398;2023-09-19T08:54:19;15.18;;;3.42;;
52124;SDS011;38119;52.710;6.398;2023-09-19T08:56:51;15.45;;;3.38;;
52124;SDS011;38119;52.710;6.398;2023-09-19T08:59:21;11.93;;;2.92;;
52124;SDS011;38119;52.710;6.398;2023-09-19T09:01:52;13.95;;;2.78;;
52124;SDS011;38119;52.710;6.398;2023-09-19T09:06:51;18.58;;;4.32;;
52124;SDS011;38119;52.710;6.398;2023-09-19T09:09:20;14.13;;;3.00;;
52124;SDS011;38119;52.710;6.398;2023-09-19T09:11:47;12.85;;;3.40;;
52124;SDS011;38119;52.710;6.398;2023-09-19T09:14:15;12.25;;;3.00;;
52124;SDS011;38119;52.710;6.398;2023-09-19T09:16:42;16.92;;;3.25;;
52124;SDS011;38119;52.710;6.398;2023-09-19T09:19:07;12.65;;;3.03;;
52124;SDS011;38119;52.710;6.398;2023-09-19T09:21:33;13.90;;;2.85;;
52124;SDS011;38119;52.710;6.398;2023-09-19T09:27:26;14.32;;;3.05;;
52124;SDS011;38119;52.710;6.398;2023-09-19T09:29:52;14.80;;;3.10;;
52124;SDS011;38119;52.710;6.398;2023-09-19T09:32:21;15.48;;;3.45;;
52124;SDS011;38119;52.710;6.398;2023-09-19T09:35:02;13.98;;;3.20;;
52124;SDS011;38119;52.710;6.398;2023-09-19T09:37:35;17.63;;;3.47;;
52124;SDS011;38119;52.710;6.398;2023-09-19T09:40:03;13.45;;;2.95;;
52124;SDS011;38119;52.710;6.398;2023-09-19T09:42:42;15.57;;;3.08;;
52124;SDS011;38119;52.710;6.398;2023-09-19T09:45:18;12.93;;;3.03;;
52124;SDS011;38119;52.710;6.398;2023-09-19T09:47:53;14.57;;;3.22;;
52124;SDS011;38119;52.710;6.398;2023-09-19T09:50:34;12.82;;;3.45;;
52124;SDS011;38119;52.710;6.398;2023-09-19T09:56:06;13.93;;;3.00;;
52124;SDS011;38119;52.710;6.398;2023-09-19T09:58:35;12.68;;;2.88;;
52124;SDS011;38119;52.710;6.398;2023-09-19T10:01:02;10.25;;;3.15;;
52124;SDS011;38119;52.710;6.398;2023-09-19T10:03:40;11.35;;;3.10;;
52124;SDS011;38119;52.710;6.398;2023-09-19T10:06:09;12.80;;;3.60;;
52124;SDS011;38119;52.710;6.398;2023-09-19T10:11:43;14.20;;;3.65;;
52124;SDS011;38119;52.710;6.398;2023-09-19T10:14:14;15.07;;;3.70;;
52124;SDS011;38119;52.710;6.398;2023-09-19T10:16:48;16.50;;;3.78;;
52124;SDS011;38119;52.710;6.398;2023-09-19T10:19:23;13.43;;;3.30;;
52124;SDS011;38119;52.710;6.398;2023-09-19T10:22:14;15.95;;;3.05;;
52124;SDS011;38119;52.710;6.398;2023-09-19T10:24:45;12.55;;;3.55;;
52124;SDS011;38119;52.710;6.398;2023-09-19T10:27:12;12.43;;;3.30;;
52124;SDS011;38119;52.710;6.398;2023-09-19T10:29:39;13.43;;;3.22;;
52124;SDS011;38119;52.710;6.398;2023-09-19T10:32:07;9.10;;;2.70;;
52124;SDS011;38119;52.710;6.398;2023-09-19T10:34:34;12.57;;;3.28;;
52124;SDS011;38119;52.710;6.398;2023-09-19T10:37:02;9.95;;;2.67;;
52124;SDS011;38119;52.710;6.398;2023-09-19T10:39:31;13.82;;;2.92;;
52124;SDS011;38119;52.710;6.398;2023-09-19T10:41:57;14.60;;;3.55;;
52124;SDS011;38119;52.710;6.398;2023-09-19T10:44:31;10.02;;;3.10;;
52124;SDS011;38119;52.710;6.398;2023-09-19T10:46:58;11.80;;;2.75;;
52124;SDS011;38119;52.710;6.398;2023-09-19T10:49:24;12.15;;;2.78;;
52124;SDS011;38119;52.710;6.398;2023-09-19T10:51:54;14.63;;;3.13;;
52124;SDS011;38119;52.710;6.398;2023-09-19T10:54:25;15.82;;;3.20;;
52124;SDS011;38119;52.710;6.398;2023-09-19T10:56:54;9.90;;;3.10;;
52124;SDS011;38119;52.710;6.398;2023-09-19T10:59:23;14.23;;;2.85;;
52124;SDS011;38119;52.710;6.398;2023-09-19T11:01:53;14.52;;;3.17;;
52124;SDS011;38119;52.710;6.398;2023-09-19T11:04:33;14.85;;;2.85;;
52124;SDS011;38119;52.710;6.398;2023-09-19T11:07:04;11.70;;;3.03;;
52124;SDS011;38119;52.710;6.398;2023-09-19T11:09:42;13.68;;;2.60;;
52124;SDS011;38119;52.710;6.398;2023-09-19T11:30:34;11.30;;;2.63;;
52124;SDS011;38119;52.710;6.398;2023-09-19T11:33:21;13.82;;;3.03;;
52124;SDS011;38119;52.710;6.398;2023-09-19T11:36:03;13.68;;;3.50;;
52124;SDS011;38119;52.710;6.398;2023-09-19T11:46:28;18.30;;;3.28;;
52124;SDS011;38119;52.710;6.398;2023-09-19T11:49:04;15.73;;;3.13;;
52124;SDS011;38119;52.710;6.398;2023-09-19T11:51:39;10.32;;;2.28;;
52124;SDS011;38119;52.710;6.398;2023-09-19T11:54:10;11.85;;;2.42;;
52124;SDS011;38119;52.710;6.398;2023-09-19T11:56:50;8.35;;;2.53;;
52124;SDS011;38119;52.710;6.398;2023-09-19T11:59:20;10.00;;;2.13;;
52124;SDS011;38119;52.710;6.398;2023-09-19T12:01:50;13.90;;;2.78;;
52124;SDS011;38119;52.710;6.398;2023-09-19T12:04:44;10.55;;;2.55;;
52124;SDS011;38119;52.710;6.398;2023-09-19T12:09:41;8.35;;;2.60;;
52124;SDS011;38119;52.710;6.398;2023-09-19T12:12:09;9.20;;;2.47;;
52124;SDS011;38119;52.710;6.398;2023-09-19T12:14:37;11.10;;;2.53;;
52124;SDS011;38119;52.710;6.398;2023-09-19T12:17:06;7.97;;;2.50;;
52124;SDS011;38119;52.710;6.398;2023-09-19T12:19:32;10.32;;;2.03;;
52124;SDS011;38119;52.710;6.398;2023-09-19T12:21:58;8.48;;;2.08;;
52124;SDS011;38119;52.710;6.398;2023-09-19T12:24:29;8.43;;;2.42;;
52124;SDS011;38119;52.710;6.398;2023-09-19T12:26:59;8.77;;;2.30;;
52124;SDS011;38119;52.710;6.398;2023-09-19T12:29:29;11.50;;;2.78;;
52124;SDS011;38119;52.710;6.398;2023-09-19T12:31:59;14.40;;;2.92;;
52124;SDS011;38119;52.710;6.398;2023-09-19T12:34:32;8.82;;;2.40;;
52124;SDS011;38119;52.710;6.398;2023-09-19T12:39:53;13.80;;;2.53;;
52124;SDS011;38119;52.710;6.398;2023-09-19T12:42:39;11.80;;;2.55;;
52124;SDS011;38119;52.710;6.398;2023-09-19T12:45:06;11.40;;;2.65;;
52124;SDS011;38119;52.710;6.398;2023-09-19T12:47:34;9.50;;;2.72;;
52124;SDS011;38119;52.710;6.398;2023-09-19T12:52:51;10.35;;;2.17;;
52124;SDS011;38119;52.710;6.398;2023-09-19T12:55:25;11.57;;;2.50;;
52124;SDS011;38119;52.710;6.398;2023-09-19T12:58:08;7.85;;;2.35;;
52124;SDS011;38119;52.710;6.398;2023-09-19T13:00:40;6.88;;;2.33;;
52124;SDS011;38119;52.710;6.398;2023-09-19T13:06:02;8.48;;;2.42;;
52124;SDS011;38119;52.710;6.398;2023-09-19T13:11:10;8.38;;;2.30;;
52124;SDS011;38119;52.710;6.398;2023-09-19T13:13:43;6.80;;;2.00;;
52124;SDS011;38119;52.710;6.398;2023-09-19T13:16:14;9.85;;;2.08;;
52124;SDS011;38119;52.710;6.398;2023-09-19T13:18:45;9.88;;;1.88;;
52124;SDS011;38119;52.710;6.398;2023-09-19T13:21:16;7.28;;;2.17;;
52124;SDS011;38119;52.710;6.398;2023-09-19T13:23:52;8.02;;;2.17;;
52124;SDS011;38119;52.710;6.398;2023-09-19T13:28:50;8.10;;;2.10;;
52124;SDS011;38119;52.710;6.398;2023-09-19T13:31:15;6.10;;;2.67;;
52124;SDS011;38119;52.710;6.398;2023-09-19T13:33:45;9.63;;;1.77;;
52124;SDS011;38119;52.710;6.398;2023-09-19T13:36:11;11.27;;;2.70;;
52124;SDS011;38119;52.710;6.398;2023-09-19T13:38:38;9.18;;;1.98;;
52124;SDS011;38119;52.710;6.398;2023-09-19T13:41:07;5.28;;;1.98;;
52124;SDS011;38119;52.710;6.398;2023-09-19T13:43:32;7.93;;;1.90;;
52124;SDS011;38119;52.710;6.398;2023-09-19T13:45:58;9.00;;;2.00;;
52124;SDS011;38119;52.710;6.398;2023-09-19T13:48:24;7.65;;;1.95;;
52124;SDS011;38119;52.710;6.398;2023-09-19T13:50:49;7.95;;;1.90;;
52124;SDS011;38119;52.710;6.398;2023-09-19T13:53:15;7.03;;;1.90;;
52124;SDS011;38119;52.710;6.398;2023-09-19T13:55:42;8.98;;;1.50;;
52124;SDS011;38119;52.710;6.398;2023-09-19T13:58:08;11.45;;;2.22;;
52124;SDS011;38119;52.710;6.398;2023-09-19T14:00:36;7.15;;;2.08;;
52124;SDS011;38119;52.710;6.398;2023-09-19T14:03:01;8.85;;;2.13;;
52124;SDS011;38119;52.710;6.398;2023-09-19T14:05:29;8.80;;;1.55;;
52124;SDS011;38119;52.710;6.398;2023-09-19T14:07:55;6.82;;;1.80;;
52124;SDS011;38119;52.710;6.398;2023-09-19T14:10:21;6.00;;;1.63;;
52124;SDS011;38119;52.710;6.398;2023-09-19T14:12:46;4.53;;;1.50;;
52124;SDS011;38119;52.710;6.398;2023-09-19T14:15:12;5.45;;;1.60;;
52124;SDS011;38119;52.710;6.398;2023-09-19T14:17:39;7.72;;;1.88;;
52124;SDS011;38119;52.710;6.398;2023-09-19T14:20:07;6.40;;;2.03;;
52124;SDS011;38119;52.710;6.398;2023-09-19T14:22:35;5.95;;;1.80;;
52124;SDS011;38119;52.710;6.398;2023-09-19T14:25:01;7.70;;;1.80;;
52124;SDS011;38119;52.710;6.398;2023-09-19T14:27:29;6.75;;;1.60;;
52124;SDS011;38119;52.710;6.398;2023-09-19T14:29:54;7.15;;;1.80;;
52124;SDS011;38119;52.710;6.398;2023-09-19T14:32:21;6.93;;;1.48;;
52124;SDS011;38119;52.710;6.398;2023-09-19T14:34:47;8.73;;;1.77;;
52124;SDS011;38119;52.710;6.398;2023-09-19T14:37:13;3.63;;;1.38;;
52124;SDS011;38119;52.710;6.398;2023-09-19T14:39:39;11.35;;;2.33;;
52124;SDS011;38119;52.710;6.398;2023-09-19T14:42:05;7.57;;;1.65;;
52124;SDS011;38119;52.710;6.398;2023-09-19T14:44:31;9.95;;;1.65;;
52124;SDS011;38119;52.710;6.398;2023-09-19T14:46:58;7.00;;;1.83;;
52124;SDS011;38119;52.710;6.398;2023-09-19T14:49:23;4.60;;;1.60;;
52124;SDS011;38119;52.710;6.398;2023-09-19T14:51:50;7.82;;;1.85;;
52124;SDS011;38119;52.710;6.398;2023-09-19T14:54:17;17.75;;;2.47;;
52124;SDS011;38119;52.710;6.398;2023-09-19T14:56:43;8.02;;;1.70;;
52124;SDS011;38119;52.710;6.398;2023-09-19T14:59:10;7.45;;;1.40;;
52124;SDS011;38119;52.710;6.398;2023-09-19T15:01:40;4.38;;;1.30;;
52124;SDS011;38119;52.710;6.398;2023-09-19T15:04:08;8.65;;;2.20;;
52124;SDS011;38119;52.710;6.398;2023-09-19T15:06:33;7.93;;;1.98;;
52124;SDS011;38119;52.710;6.398;2023-09-19T15:08:59;5.90;;;1.50;;
52124;SDS011;38119;52.710;6.398;2023-09-19T15:11:25;4.60;;;1.77;;
52124;SDS011;38119;52.710;6.398;2023-09-19T15:13:52;5.82;;;1.50;;
52124;SDS011;38119;52.710;6.398;2023-09-19T15:16:19;6.20;;;1.70;;
52124;SDS011;38119;52.710;6.398;2023-09-19T15:18:45;8.80;;;1.60;;
52124;SDS011;38119;52.710;6.398;2023-09-19T15:21:12;5.88;;;1.70;;
52124;SDS011;38119;52.710;6.398;2023-09-19T15:23:40;6.68;;;2.20;;
52124;SDS011;38119;52.710;6.398;2023-09-19T15:26:07;5.40;;;1.85;;
52124;SDS011;38119;52.710;6.398;2023-09-19T15:28:33;9.52;;;2.00;;
52124;SDS011;38119;52.710;6.398;2023-09-19T15:31:04;5.93;;;1.60;;
52124;SDS011;38119;52.710;6.398;2023-09-19T15:33:31;6.03;;;1.90;;
52124;SDS011;38119;52.710;6.398;2023-09-19T15:36:04;10.45;;;1.73;;
52124;SDS011;38119;52.710;6.398;2023-09-19T15:43:56;7.15;;;1.70;;
52124;SDS011;38119;52.710;6.398;2023-09-19T15:46:24;9.27;;;1.75;;
52124;SDS011;38119;52.710;6.398;2023-09-19T15:48:52;7.80;;;1.90;;
52124;SDS011;38119;52.710;6.398;2023-09-19T15:51:18;6.40;;;1.80;;
52124;SDS011;38119;52.710;6.398;2023-09-19T15:56:12;8.45;;;1.48;;
52124;SDS011;38119;52.710;6.398;2023-09-19T15:58:41;6.68;;;1.80;;
52124;SDS011;38119;52.710;6.398;2023-09-19T16:01:14;8.13;;;1.95;;
52124;SDS011;38119;52.710;6.398;2023-09-19T16:03:42;6.00;;;1.70;;
52124;SDS011;38119;52.710;6.398;2023-09-19T16:06:09;3.92;;;1.65;;
52124;SDS011;38119;52.710;6.398;2023-09-19T16:08:43;5.70;;;1.60;;
52124;SDS011;38119;52.710;6.398;2023-09-19T16:11:10;7.40;;;1.70;;
52124;SDS011;38119;52.710;6.398;2023-09-19T16:13:36;5.95;;;1.98;;
52124;SDS011;38119;52.710;6.398;2023-09-19T16:16:03;5.43;;;2.00;;